Terminal Aerodrome Forecast
Issued by NWS Newport/Morehead City, NC

Home | Current Version | Previous Version | Graphics & Text | Print | Product List | Glossary Off
Versions: 1 2 3 4 5 6 7 8 9 10 11 12 13 14 15 16 17 18 19 20 21 22 23

746
FTUS42 KMHX 062331
TAFEWN
TAF
KEWN 062331Z 0700/0724 VRB04KT P6SM BKN070
     FM071600 29011G18KT P6SM SCT250
     FM072100 25008KT P6SM SCT100=

USA.gov is the U.S. government's official web portal to all federal, state and local government web resources and services.